ウランバートル の空港の天気 - METARとTAF

チンギスハーン国際空港 ( ZMUB / ULN ) - モンゴル ウランバートル
飛行場実況気象(Metar)
観測時間12/06 19:00 ULAT (12/06 11:00 UTC)
風向・風速不定 1m/s
視程10km以上
天気現象
なし
気温-23℃
湿度64%
気圧1020hPa
METARZMUB 061100Z VRB01MPS CAVOK M23/M28 Q1020 NOSIG RMK QFE657.3 62
過去の天気等 Google飛行場航空写真 Wunderground天気予報

過去48時間のMETAR

飛行場予報(TAF)
発表時間: 12/06 18:35 ULAT (12/06 10:35 UTC)
予報対象時間: 6日20時 ULAT ~ 8日2時 ULAT
風向・風速不定 2m/s
視程6000m
全天の4割程度の雲 雲底高度 3050m
TAF ZMUB 061035Z 0612/0718 VRB02MPS 6000 SCT100 TNM34/0623Z TXM17/0707Z